Time;durP1;ratioP1;P1;durP2;ratioP2;P2;SDS_P1;SDS_P2;PMS_P1;PMS_P2;Temp;Humidity;BMP_temperature;BMP_pressure;BME280_temperature;BME280_humidity;BME280_pressure;Samples;Min_cycle;Max_cycle;Signal;HPM_P1;HPM_P2
2021/10/20 00:01:39;;;;;;;0.57;0.57;;;;;;;2.55;62.64;97509.41;5053299;28;20048;-65
2021/10/20 00:04:05;;;;;;;0.30;0.30;;;;;;;2.58;62.69;97505.44;5054026;28;20140;-63
2021/10/20 00:06:31;;;;;;;1.77;0.60;;;;;;;2.57;62.49;97501.88;5054096;28;20442;-64
2021/10/20 00:08:57;;;;;;;0.88;0.88;;;;;;;2.57;62.42;97506.50;5054750;28;20488;-62
2021/10/20 00:11:23;;;;;;;0.88;0.88;;;;;;;2.56;62.35;97515.66;5054146;28;20037;-63
2021/10/20 00:13:49;;;;;;;0.40;0.40;;;;;;;2.55;62.39;97509.41;5054085;28;20033;-63
2021/10/20 00:16:16;;;;;;;3.75;1.02;;;;;;;2.56;62.43;97508.38;5053527;28;20071;-66
2021/10/20 00:18:47;;;;;;;0.90;0.68;;;;;;;2.59;62.19;97504.38;5054153;28;20084;-63
2021/10/20 00:21:15;;;;;;;0.65;0.65;;;;;;;2.61;62.16;97505.00;5053644;28;20053;-65
2021/10/20 00:23:41;;;;;;;0.88;0.88;;;;;;;2.60;62.23;97511.47;5053837;28;20080;-65
2021/10/20 00:26:07;;;;;;;0.57;0.57;;;;;;;2.58;62.30;97508.97;5053741;28;20056;-67
2021/10/20 00:28:32;;;;;;;0.35;0.35;;;;;;;2.56;62.29;97504.81;5053646;28;20504;-67
2021/10/20 00:30:58;;;;;;;0.30;0.30;;;;;;;2.55;62.28;97505.88;5034984;28;20063;-65
2021/10/20 00:33:24;;;;;;;0.77;0.77;;;;;;;2.51;62.42;97512.78;5053490;28;20036;-65
2021/10/20 00:35:50;;;;;;;0.63;0.63;;;;;;;2.47;62.39;97511.53;5053456;28;20044;-67
2021/10/20 00:38:15;;;;;;;0.50;0.50;;;;;;;2.45;62.37;97503.63;5053649;28;20476;-65
2021/10/20 00:40:41;;;;;;;0.47;0.47;;;;;;;2.43;62.45;97505.72;5053452;28;20128;-66
2021/10/20 00:43:07;;;;;;;1.35;1.25;;;;;;;2.41;62.49;97503.19;5053606;28;20476;-64
2021/10/20 00:45:35;;;;;;;1.40;0.57;;;;;;;2.38;62.52;97508.22;5052701;28;20036;-64
2021/10/20 00:48:01;;;;;;;1.67;1.33;;;;;;;2.32;62.55;97509.91;5053202;28;20083;-66
2021/10/20 00:50:26;;;;;;;0.73;0.73;;;;;;;2.32;62.58;97509.09;5052912;28;20060;-66
2021/10/20 00:52:52;;;;;;;3.78;1.42;;;;;;;2.36;62.53;97513.03;5035592;28;20045;-65
2021/10/20 00:55:18;;;;;;;0.52;0.52;;;;;;;2.34;62.53;97512.41;5053063;28;20535;-66
2021/10/20 00:57:46;;;;;;;0.43;0.43;;;;;;;2.30;62.54;97509.31;5052827;28;20558;-66
2021/10/20 01:00:14;;;;;;;0.70;0.65;;;;;;;2.32;62.42;97512.63;5052346;28;20049;-66
2021/10/20 01:02:41;;;;;;;1.83;1.70;;;;;;;2.31;62.44;97513.66;5052844;28;20470;-67
2021/10/20 01:05:09;;;;;;;0.82;0.70;;;;;;;2.33;62.39;97514.28;5052690;28;20087;-65
2021/10/20 01:07:36;;;;;;;1.20;1.00;;;;;;;2.31;62.28;97504.72;5034972;28;20044;-66
2021/10/20 01:10:04;;;;;;;0.68;0.68;;;;;;;2.26;62.41;97510.78;5052612;28;20048;-64
2021/10/20 01:12:30;;;;;;;0.35;0.35;;;;;;;2.25;62.50;97518.09;5034806;28;20072;-65
2021/10/20 01:14:56;;;;;;;5.32;1.25;;;;;;;2.23;62.45;97522.03;5052330;28;20084;-65
2021/10/20 01:17:21;;;;;;;1.13;1.13;;;;;;;2.19;62.42;97518.91;5034599;28;20479;-65
2021/10/20 01:19:47;;;;;;;0.60;0.60;;;;;;;2.14;62.55;97518.72;5052393;28;20041;-65
2021/10/20 01:22:13;;;;;;;0.32;0.32;;;;;;;2.14;62.45;97523.31;5034781;28;20049;-64
2021/10/20 01:24:39;;;;;;;0.52;0.52;;;;;;;2.09;62.49;97527.50;5034481;28;20495;-65
2021/10/20 01:27:06;;;;;;;0.47;0.30;;;;;;;2.07;62.63;97518.72;5052012;28;20051;-66
2021/10/20 01:29:32;;;;;;;0.40;0.40;;;;;;;2.04;62.72;97521.88;5033895;28;20401;-64
2021/10/20 01:32:02;;;;;;;0.30;0.30;;;;;;;2.01;62.62;97524.19;5034345;28;20140;-65
2021/10/20 01:34:27;;;;;;;0.63;0.63;;;;;;;1.96;62.93;97518.56;5052265;28;20044;-64
2021/10/20 01:36:54;;;;;;;0.47;0.47;;;;;;;1.95;62.72;97523.16;5052226;28;20037;-64
2021/10/20 01:39:20;;;;;;;0.68;0.60;;;;;;;1.95;62.75;97528.56;5052267;28;20079;-65
2021/10/20 01:41:48;;;;;;;0.30;0.30;;;;;;;1.92;62.56;97532.50;5052187;28;20052;-65
2021/10/20 01:44:14;;;;;;;0.28;0.28;;;;;;;1.88;62.71;97519.63;5052231;28;20045;-65
2021/10/20 01:46:40;;;;;;;0.30;0.30;;;;;;;1.87;62.69;97526.06;5052223;28;20048;-64
2021/10/20 01:49:06;;;;;;;1.50;1.05;;;;;;;1.83;62.54;97522.97;5051889;28;20129;-66
2021/10/20 01:51:32;;;;;;;0.30;0.30;;;;;;;1.80;62.81;97522.56;5051252;28;20124;-65
2021/10/20 01:53:59;;;;;;;0.20;0.20;;;;;;;1.80;62.68;97522.56;5051473;28;20127;-65
2021/10/20 01:56:25;;;;;;;0.47;0.47;;;;;;;1.78;62.57;97530.88;5052085;28;20049;-64
2021/10/20 01:58:51;;;;;;;0.22;0.22;;;;;;;1.78;62.57;97527.34;5052097;28;20439;-66
2021/10/20 02:01:17;;;;;;;0.50;0.50;;;;;;;1.75;62.73;97529.44;5060648;28;20052;-66
2021/10/20 02:03:45;;;;;;;0.20;0.20;;;;;;;1.72;62.59;97527.16;5065643;28;20048;-65
2021/10/20 02:06:13;;;;;;;0.30;0.30;;;;;;;1.71;62.52;97525.47;5071648;28;20127;-67
2021/10/20 02:08:41;;;;;;;0.20;0.20;;;;;;;1.70;62.53;97526.50;5071860;28;20044;-64
2021/10/20 02:11:08;;;;;;;0.22;0.22;;;;;;;1.68;62.52;97531.31;5071576;28;20091;-65
2021/10/20 02:13:34;;;;;;;1.35;1.13;;;;;;;1.63;62.78;97525.69;5071882;28;20510;-65
2021/10/20 02:16:00;;;;;;;0.50;0.50;;;;;;;1.61;62.50;97532.38;5071788;28;20040;-64
2021/10/20 02:18:26;;;;;;;0.30;0.30;;;;;;;1.53;62.79;97527.97;5071814;28;20052;-66
2021/10/20 02:20:53;;;;;;;0.30;0.30;;;;;;;1.51;62.73;97520.06;5071283;28;20423;-64
2021/10/20 02:23:19;;;;;;;0.43;0.43;;;;;;;1.51;62.73;97532.78;5072033;28;20095;-65
2021/10/20 02:25:45;;;;;;;1.25;0.80;;;;;;;1.49;62.70;97535.69;5071569;28;20040;-65
2021/10/20 02:28:11;;;;;;;0.20;0.20;;;;;;;1.49;62.76;97532.97;5072070;28;20128;-65
2021/10/20 02:30:37;;;;;;;0.25;0.25;;;;;;;1.45;62.66;97534.44;5053177;28;20499;-66
2021/10/20 02:33:04;;;;;;;0.25;0.25;;;;;;;1.45;62.67;97536.31;5071894;28;20045;-65
2021/10/20 02:35:30;;;;;;;0.30;0.30;;;;;;;1.47;62.67;97536.94;5071717;28;20040;-65
2021/10/20 02:37:56;;;;;;;0.30;0.30;;;;;;;1.49;62.53;97530.28;5071411;28;20048;-64
2021/10/20 02:40:22;;;;;;;0.50;0.50;;;;;;;1.50;62.47;97529.25;5071514;28;20403;-64
2021/10/20 02:42:48;;;;;;;0.30;0.30;;;;;;;1.49;62.52;97532.16;5071293;28;20048;-65
2021/10/20 02:45:15;;;;;;;0.52;0.52;;;;;;;1.50;62.50;97531.09;5071644;28;20568;-66
2021/10/20 02:47:42;;;;;;;0.77;0.75;;;;;;;1.49;62.32;97529.44;5072291;28;20045;-65
2021/10/20 02:50:09;;;;;;;0.75;0.47;;;;;;;1.48;62.26;97533.19;5071532;28;20037;-65
2021/10/20 02:52:35;;;;;;;4.75;0.70;;;;;;;1.44;62.28;97538.16;5053404;28;20199;-65
2021/10/20 02:55:01;;;;;;;0.43;0.43;;;;;;;1.44;62.42;97543.56;5071437;28;20103;-65
2021/10/20 02:57:26;;;;;;;0.82;0.82;;;;;;;1.46;62.12;97540.66;5053406;28;20041;-66
2021/10/20 02:59:53;;;;;;;1.00;0.85;;;;;;;1.49;62.09;97548.38;5070945;28;20044;-67
2021/10/20 03:02:19;;;;;;;0.60;0.40;;;;;;;1.49;62.12;97540.28;5059619;28;20048;-65
2021/10/20 03:04:46;;;;;;;1.45;0.77;;;;;;;1.51;62.05;97540.88;5061134;28;20050;-69
2021/10/20 03:07:12;;;;;;;0.40;0.40;;;;;;;1.51;61.99;97551.72;5060280;28;20122;-66
2021/10/20 03:09:38;;;;;;;18.05;1.30;;;;;;;1.50;62.11;97556.28;5063253;28;20054;-66
2021/10/20 03:12:04;;;;;;;0.88;0.88;;;;;;;1.53;62.08;97549.63;5064441;28;20044;-65
2021/10/20 03:14:29;;;;;;;0.40;0.40;;;;;;;1.54;61.79;97556.69;5062794;28;20036;-65
2021/10/20 03:16:55;;;;;;;2.17;0.85;;;;;;;1.56;61.95;97565.44;5063746;28;20036;-67
2021/10/20 03:19:21;;;;;;;0.30;0.30;;;;;;;1.56;61.77;97558.16;5064028;28;20527;-65
2021/10/20 03:21:47;;;;;;;0.50;0.50;;;;;;;1.60;61.97;97557.75;5061801;28;20123;-66
2021/10/20 03:24:13;;;;;;;0.38;0.38;;;;;;;1.65;61.72;97563.34;5063700;28;20086;-65
2021/10/20 03:26:38;;;;;;;0.30;0.30;;;;;;;1.64;61.72;97559.00;5063805;28;20040;-66
2021/10/20 03:29:04;;;;;;;0.38;0.38;;;;;;;1.63;61.80;97565.44;5062264;28;20504;-65
2021/10/20 03:31:30;;;;;;;0.30;0.30;;;;;;;1.64;61.78;97567.94;5063864;28;20040;-66
2021/10/20 03:33:56;;;;;;;0.40;0.40;;;;;;;1.69;61.66;97575.44;5063087;28;20041;-68
2021/10/20 03:36:22;;;;;;;0.40;0.40;;;;;;;1.72;61.48;97573.16;5062054;28;20036;-65
2021/10/20 03:38:47;;;;;;;0.30;0.30;;;;;;;1.75;61.47;97583.56;5045965;28;20042;-66
2021/10/20 03:41:13;;;;;;;1.23;0.45;;;;;;;1.83;61.27;97571.69;5062377;28;20052;-67
2021/10/20 03:43:39;;;;;;;0.40;0.40;;;;;;;1.89;61.08;97578.97;5045405;28;20048;-65
2021/10/20 03:46:06;;;;;;;0.60;0.60;;;;;;;1.98;60.92;97568.75;5062747;28;20135;-66
2021/10/20 03:48:32;;;;;;;0.47;0.47;;;;;;;2.07;60.65;97574.78;5062364;28;20091;-65
2021/10/20 03:50:58;;;;;;;0.60;0.60;;;;;;;2.06;60.72;97567.69;5062737;28;20037;-65
2021/10/20 03:53:24;;;;;;;0.40;0.40;;;;;;;2.08;60.75;97579.97;5061946;28;20086;-65
2021/10/20 03:55:50;;;;;;;0.20;0.20;;;;;;;2.07;60.82;97583.72;5063544;28;20040;-65
2021/10/20 03:58:17;;;;;;;0.28;0.28;;;;;;;2.05;60.85;97580.41;5061493;28;20044;-64
2021/10/20 04:00:44;;;;;;;3.30;0.80;;;;;;;2.10;60.77;97580.59;5049941;28;20044;-65
2021/10/20 04:03:09;;;;;;;0.30;0.30;;;;;;;2.15;60.70;97581.84;5053498;28;20072;-64
2021/10/20 04:05:35;;;;;;;0.32;0.32;;;;;;;2.16;60.56;97578.09;5057774;28;20155;-66
2021/10/20 04:08:01;;;;;;;0.40;0.40;;;;;;;2.16;60.71;97581.63;5056441;28;20044;-65
2021/10/20 04:10:27;;;;;;;2.25;1.75;;;;;;;2.15;60.69;97577.28;5041384;28;20063;-66
2021/10/20 04:12:54;;;;;;;0.80;0.77;;;;;;;2.18;60.67;97582.25;5053519;28;20033;-65
2021/10/20 04:15:22;;;;;;;0.40;0.40;;;;;;;2.22;60.64;97597.06;5058029;28;20037;-66
2021/10/20 04:17:48;;;;;;;1.67;0.38;;;;;;;2.28;60.60;97587.22;5057723;28;20040;-66
2021/10/20 04:20:17;;;;;;;0.98;0.98;;;;;;;2.29;60.40;97586.19;5049939;28;20100;-66
2021/10/20 04:22:44;;;;;;;0.25;0.25;;;;;;;2.31;60.64;97588.69;5053349;28;20561;-67
2021/10/20 04:25:10;;;;;;;0.45;0.45;;;;;;;2.36;60.43;97594.31;5052579;28;20396;-68
2021/10/20 04:27:37;;;;;;;2.28;0.73;;;;;;;2.38;60.22;97589.50;5056005;28;20033;-67
2021/10/20 04:30:07;;;;;;;0.40;0.40;;;;;;;2.40;60.18;97582.84;5060791;28;20041;-64
2021/10/20 04:32:33;;;;;;;2.00;1.65;;;;;;;2.43;60.21;97592.41;5059933;28;20388;-65
2021/10/20 04:35:02;;;;;;;0.40;0.40;;;;;;;2.45;60.36;97599.25;5061757;28;20056;-65
2021/10/20 04:37:28;;;;;;;1.27;1.20;;;;;;;2.53;60.03;97603.66;5060915;28;20048;-66
2021/10/20 04:40:00;;;;;;;1.02;1.00;;;;;;;2.63;59.84;97604.03;5044950;28;20156;-65
2021/10/20 04:42:27;;;;;;;6.97;0.65;;;;;;;2.77;59.50;97604.81;5062498;28;20121;-65
2021/10/20 04:44:54;;;;;;;0.70;0.70;;;;;;;2.89;59.52;97601.44;5064443;28;20609;-66
2021/10/20 04:47:20;;;;;;;3.53;1.08;;;;;;;2.98;59.28;97605.53;5061139;28;20407;-65
2021/10/20 04:49:47;;;;;;;0.75;0.75;;;;;;;3.12;59.05;97609.00;5060849;28;20055;-67
2021/10/20 04:52:14;;;;;;;0.70;0.70;;;;;;;3.23;59.04;97607.50;5060635;28;20041;-65
2021/10/20 04:54:40;;;;;;;0.57;0.57;;;;;;;3.28;58.74;97599.53;5060966;28;20119;-67
2021/10/20 04:57:06;;;;;;;0.25;0.25;;;;;;;3.40;58.80;97602.38;5062436;28;20186;-66
2021/10/20 04:59:34;;;;;;;0.50;0.50;;;;;;;3.49;58.74;97591.06;5059963;28;20041;-65
2021/10/20 05:02:01;;;;;;;2.28;1.05;;;;;;;3.55;58.49;97589.38;5059356;28;20047;-66
2021/10/20 05:04:27;;;;;;;2.17;2.08;;;;;;;3.61;58.58;97587.66;5054652;28;20488;-65
2021/10/20 05:06:53;;;;;;;0.80;0.77;;;;;;;3.62;58.62;97594.72;5052904;28;20084;-64
2021/10/20 05:09:21;;;;;;;0.70;0.70;;;;;;;3.61;58.69;97580.34;5052452;28;20144;-66
2021/10/20 05:11:46;;;;;;;0.65;0.63;;;;;;;3.64;58.60;97584.50;5052958;28;20087;-66
2021/10/20 05:14:12;;;;;;;0.50;0.50;;;;;;;3.72;58.56;97584.22;5052585;28;20415;-67
2021/10/20 05:16:38;;;;;;;0.75;0.75;;;;;;;3.79;58.36;97589.59;5052545;28;20131;-66
2021/10/20 05:19:04;;;;;;;0.40;0.40;;;;;;;3.86;58.13;97585.75;5033649;28;20143;-66
2021/10/20 05:21:29;;;;;;;0.80;0.80;;;;;;;3.96;58.00;97585.28;5050795;28;20057;-66
2021/10/20 05:23:55;;;;;;;0.73;0.73;;;;;;;4.02;58.00;97586.28;5051296;28;20411;-64
2021/10/20 05:26:21;;;;;;;0.43;0.43;;;;;;;4.13;57.84;97585.53;5051964;28;20542;-65
2021/10/20 05:28:47;;;;;;;1.38;0.85;;;;;;;4.21;57.86;97587.13;5033788;28;20131;-64
2021/10/20 05:31:14;;;;;;;0.63;0.63;;;;;;;4.28;57.63;97587.06;5051136;28;20124;-67
2021/10/20 05:33:40;;;;;;;1.05;1.05;;;;;;;4.27;57.56;97586.25;5051980;28;20048;-65
2021/10/20 05:36:08;;;;;;;0.75;0.70;;;;;;;4.25;57.63;97582.06;5052727;28;20041;-66
2021/10/20 05:38:34;;;;;;;0.77;0.77;;;;;;;4.21;57.76;97592.53;5052390;28;20041;-66
2021/10/20 05:41:00;;;;;;;0.88;0.82;;;;;;;4.21;57.72;97589.81;5052197;28;20037;-65
2021/10/20 05:43:25;;;;;;;0.55;0.55;;;;;;;4.23;57.59;97589.63;5052175;28;20399;-65
2021/10/20 05:45:51;;;;;;;0.60;0.60;;;;;;;4.26;57.61;97595.44;5052286;28;20037;-66
2021/10/20 05:48:19;;;;;;;0.45;0.40;;;;;;;4.33;57.56;97596.19;5052377;28;20156;-66
2021/10/20 05:50:45;;;;;;;2.50;0.88;;;;;;;4.44;57.19;97589.19;5052447;28;20106;-64
2021/10/20 05:53:10;;;;;;;0.90;0.90;;;;;;;4.52;56.92;97593.47;5052347;28;20458;-65
2021/10/20 05:55:40;;;;;;;2.85;0.47;;;;;;;4.57;56.91;97589.03;5052591;28;20045;-65
2021/10/20 05:58:06;;;;;;;0.40;0.40;;;;;;;4.56;57.00;97590.13;5051860;28;20087;-65
2021/10/20 06:00:31;;;;;;;0.63;0.63;;;;;;;4.59;56.92;97593.44;5051497;28;20123;-66
2021/10/20 06:02:57;;;;;;;7.82;1.05;;;;;;;4.72;56.75;97588.66;5052361;28;20045;-65
2021/10/20 06:05:23;;;;;;;1.95;0.77;;;;;;;4.97;56.15;97587.72;5051936;28;20053;-65
2021/10/20 06:07:50;;;;;;;0.50;0.50;;;;;;;5.15;55.68;97591.47;5052126;28;20494;-66
2021/10/20 06:10:16;;;;;;;2.25;1.38;;;;;;;5.31;55.58;97585.38;5051978;28;20527;-65
2021/10/20 06:12:43;;;;;;;0.80;0.38;;;;;;;5.51;55.15;97590.56;5052186;28;20047;-65
2021/10/20 06:15:09;;;;;;;0.55;0.55;;;;;;;5.65;54.85;97584.91;5034171;28;20491;-66
2021/10/20 06:17:36;;;;;;;1.80;0.85;;;;;;;5.72;54.79;97581.00;5052457;28;20407;-66
2021/10/20 06:20:03;;;;;;;1.67;0.95;;;;;;;5.81;54.66;97573.31;5052226;28;20594;-67
2021/10/20 06:22:29;;;;;;;1.60;1.50;;;;;;;5.83;54.68;97582.13;5051757;28;20128;-68
2021/10/20 06:24:55;;;;;;;0.57;0.57;;;;;;;5.69;55.07;97576.03;5052073;28;20538;-66
2021/10/20 06:27:21;;;;;;;2.05;1.15;;;;;;;5.63;55.30;97576.16;5051681;28;20411;-67
2021/10/20 06:29:47;;;;;;;0.55;0.55;;;;;;;5.59;55.48;97567.59;5051641;28;20041;-65
2021/10/20 06:32:13;;;;;;;7.45;1.40;;;;;;;5.56;55.55;97571.63;5034077;28;20044;-64
2021/10/20 06:34:38;;;;;;;1.65;1.55;;;;;;;5.51;55.53;97567.97;5051745;28;20543;-65
2021/10/20 06:37:04;;;;;;;0.70;0.70;;;;;;;5.34;55.82;97573.22;5051924;28;20125;-64
2021/10/20 06:39:30;;;;;;;0.60;0.60;;;;;;;5.10;56.24;97564.97;5051730;28;20553;-65
2021/10/20 06:41:56;;;;;;;0.95;0.88;;;;;;;4.83;56.73;97562.59;5052476;28;20135;-65
2021/10/20 06:44:21;;;;;;;0.22;0.22;;;;;;;4.64;56.88;97569.94;5054585;28;20045;-67
2021/10/20 06:46:48;;;;;;;0.20;0.20;;;;;;;4.52;56.97;97577.19;5055820;28;20044;-67
2021/10/20 06:49:15;;;;;;;0.20;0.20;;;;;;;4.44;56.92;97574.78;5055750;28;20052;-65
2021/10/20 06:51:41;;;;;;;2.92;0.35;;;;;;;4.34;56.83;97578.84;5055365;28;20049;-65
2021/10/20 06:54:06;;;;;;;0.85;0.82;;;;;;;4.27;56.83;97579.94;5055280;28;20052;-65
2021/10/20 06:56:32;;;;;;;0.40;0.40;;;;;;;4.18;56.87;97580.25;5055475;28;20047;-68
2021/10/20 06:58:58;;;;;;;0.55;0.55;;;;;;;4.13;56.83;97582.81;5054257;28;20562;-65
2021/10/20 07:01:24;;;;;;;0.32;0.30;;;;;;;4.09;56.62;97570.72;5069293;28;20142;-66
2021/10/20 07:03:50;;;;;;;0.30;0.30;;;;;;;4.06;56.54;97568.44;5055394;28;20082;-65
2021/10/20 07:06:15;;;;;;;0.40;0.40;;;;;;;4.02;56.40;97572.69;5062413;28;20040;-66
2021/10/20 07:08:41;;;;;;;0.50;0.50;;;;;;;4.02;56.26;97572.69;5058804;28;20041;-64
2021/10/20 07:11:07;;;;;;;0.68;0.68;;;;;;;4.04;56.07;97563.25;5063805;28;20041;-65
2021/10/20 07:13:33;;;;;;;0.43;0.30;;;;;;;4.13;55.66;97560.25;5056476;28;20045;-66
2021/10/20 07:15:58;;;;;;;1.00;1.00;;;;;;;4.15;55.51;97555.41;5055938;28;20048;-66
2021/10/20 07:18:29;;;;;;;0.25;0.25;;;;;;;4.16;55.34;97552.47;5062168;28;20407;-65
2021/10/20 07:20:55;;;;;;;0.20;0.20;;;;;;;4.23;55.06;97548.88;5069328;28;20057;-66
2021/10/20 07:23:20;;;;;;;0.80;0.30;;;;;;;4.34;55.01;97554.41;5069165;28;20423;-64
2021/10/20 07:25:46;;;;;;;0.20;0.20;;;;;;;4.40;54.62;97555.34;5041095;28;20451;-68
2021/10/20 07:28:12;;;;;;;0.40;0.40;;;;;;;4.48;54.41;97549.63;5020567;28;20514;-67
2021/10/20 07:30:38;;;;;;;0.77;0.77;;;;;;;4.46;54.36;97549.03;5054925;28;20036;-65
2021/10/20 07:33:04;;;;;;;2.65;0.52;;;;;;;4.55;54.17;97544.13;5054894;28;20051;-66
2021/10/20 07:35:31;;;;;;;0.20;0.20;;;;;;;4.62;54.06;97539.41;5054709;28;20570;-65
2021/10/20 07:37:57;;;;;;;0.20;0.20;;;;;;;4.59;54.09;97533.63;5037033;28;20037;-65
2021/10/20 07:40:23;;;;;;;0.20;0.20;;;;;;;4.56;54.11;97535.75;5054487;28;20045;-65
2021/10/20 07:42:48;;;;;;;0.30;0.30;;;;;;;4.64;53.93;97531.03;5054291;28;20471;-66
2021/10/20 07:45:16;;;;;;;0.50;0.50;;;;;;;4.77;53.62;97527.31;5054486;28;20049;-64
2021/10/20 07:47:50;;;;;;;0.30;0.30;;;;;;;4.93;53.34;97525.84;5054791;28;20128;-65
2021/10/20 07:50:18;;;;;;;0.83;0.67;;;;;;;5.11;52.97;97509.50;5054828;28;20044;-66
2021/10/20 07:52:48;;;;;;;6.72;0.93;;;;;;;5.18;52.81;97515.69;5053036;28;20104;-65
2021/10/20 07:55:15;;;;;;;0.30;0.30;;;;;;;5.25;52.77;97505.50;5054487;28;20596;-64
2021/10/20 07:57:41;;;;;;;0.20;0.20;;;;;;;5.31;52.55;97506.47;5054558;28;20534;-66
2021/10/20 08:00:08;;;;;;;0.20;0.20;;;;;;;5.29;52.66;97502.34;5054102;28;20045;-65
2021/10/20 08:02:33;;;;;;;0.30;0.30;;;;;;;5.19;52.78;97503.72;5054711;28;20052;-66
2021/10/20 08:04:59;;;;;;;0.20;0.20;;;;;;;5.16;53.03;97504.19;5053932;28;20056;-64
2021/10/20 08:07:28;;;;;;;0.40;0.40;;;;;;;5.30;52.57;97506.69;5053748;28;20040;-65
2021/10/20 08:09:54;;;;;;;0.20;0.20;;;;;;;5.37;52.42;97499.25;5054221;28;20487;-65
2021/10/20 08:12:20;;;;;;;0.20;0.20;;;;;;;5.48;52.20;97497.59;5054201;28;20087;-66
2021/10/20 08:14:47;;;;;;;0.20;0.20;;;;;;;5.57;51.98;97491.59;5054309;28;20091;-66
2021/10/20 08:17:12;;;;;;;0.20;0.20;;;;;;;5.42;52.13;97505.66;5054534;28;20041;-65
2021/10/20 08:19:39;;;;;;;12.25;0.50;;;;;;;5.20;52.62;97513.53;5054033;28;20047;-66
2021/10/20 08:22:06;;;;;;;0.20;0.20;;;;;;;5.02;53.00;97508.16;5054038;28;20118;-66
2021/10/20 08:24:32;;;;;;;0.20;0.20;;;;;;;4.99;52.98;97503.16;5054232;28;20045;-66
2021/10/20 08:26:58;;;;;;;0.30;0.30;;;;;;;4.94;53.02;97508.50;5054172;28;20499;-66
2021/10/20 08:29:24;;;;;;;0.20;0.20;;;;;;;4.81;53.13;97490.44;5054642;28;20052;-70
2021/10/20 08:31:50;;;;;;;0.20;0.20;;;;;;;4.87;53.07;97493.09;5035503;28;20073;-68
2021/10/20 08:34:16;;;;;;;0.20;0.20;;;;;;;5.05;52.60;97488.63;5053413;28;20412;-66
2021/10/20 08:36:41;;;;;;;0.20;0.20;;;;;;;5.13;52.33;97476.63;5035706;28;20040;-65
2021/10/20 08:39:07;;;;;;;0.20;0.20;;;;;;;5.30;52.02;97487.63;5053411;28;20041;-68
2021/10/20 08:41:33;;;;;;;0.20;0.20;;;;;;;5.54;51.42;97481.19;5053621;28;20045;-65
2021/10/20 08:43:59;;;;;;;0.20;0.20;;;;;;;5.68;51.14;97479.03;5053857;28;20069;-66
2021/10/20 08:46:28;;;;;;;0.20;0.20;;;;;;;5.76;50.82;97469.72;5052107;28;20037;-64
2021/10/20 08:48:56;;;;;;;0.20;0.20;;;;;;;5.89;50.74;97461.31;5051754;28;20045;-65
2021/10/20 08:51:23;;;;;;;0.20;0.20;;;;;;;6.06;50.53;97472.31;5053117;28;20172;-66
2021/10/20 08:53:50;;;;;;;0.20;0.20;;;;;;;6.19;50.27;97465.78;5053371;28;20037;-67
2021/10/20 08:56:18;;;;;;;0.22;0.22;;;;;;;6.29;50.05;97463.28;5035816;28;20049;-65
2021/10/20 08:58:44;;;;;;;0.30;0.30;;;;;;;6.42;49.78;97448.56;5053190;28;20128;-66
2021/10/20 09:01:13;;;;;;;0.35;0.35;;;;;;;6.42;49.92;97459.47;5052313;28;20045;-64
2021/10/20 09:03:42;;;;;;;0.20;0.20;;;;;;;6.25;50.26;97470.28;5053052;28;20403;-66
2021/10/20 09:06:09;;;;;;;0.30;0.30;;;;;;;6.08;50.53;97453.84;5052285;28;20055;-66
2021/10/20 09:08:46;;;;;;;0.20;0.20;;;;;;;6.04;50.63;97460.03;5052789;28;20462;-66
2021/10/20 09:11:33;;;;;;;0.20;0.20;;;;;;;5.87;51.06;97455.25;5035336;28;20522;-67
2021/10/20 09:14:12;;;;;;;0.20;0.20;;;;;;;5.66;51.36;97456.69;5036850;28;20048;-67
2021/10/20 09:16:42;;;;;;;0.20;0.20;;;;;;;5.46;51.67;97454.28;5052669;28;20066;-64
2021/10/20 09:19:17;;;;;;;0.85;0.20;;;;;;;5.40;51.66;97463.41;5053008;28;20041;-68
2021/10/20 09:21:55;;;;;;;0.20;0.20;;;;;;;5.42;51.60;97453.94;5051961;28;20052;-64
2021/10/20 09:24:23;;;;;;;0.20;0.20;;;;;;;5.38;51.49;97458.19;5052602;28;20137;-66
2021/10/20 09:26:51;;;;;;;0.57;0.57;;;;;;;5.42;51.35;97447.69;5052764;28;20068;-68
2021/10/20 09:29:23;;;;;;;0.20;0.20;;;;;;;5.44;51.12;97461.88;5052404;28;20041;-65
2021/10/20 09:31:49;;;;;;;0.38;0.38;;;;;;;5.42;51.01;97451.22;5034196;28;20075;-65
2021/10/20 09:34:15;;;;;;;0.50;0.50;;;;;;;5.51;50.71;97459.06;5052738;28;20491;-66
2021/10/20 09:36:41;;;;;;;0.73;0.73;;;;;;;5.56;50.60;97468.16;5052409;28;20056;-66
2021/10/20 09:39:12;;;;;;;0.20;0.20;;;;;;;5.48;50.62;97463.06;5052276;28;20052;-68
2021/10/20 09:41:37;;;;;;;0.30;0.30;;;;;;;5.37;50.72;97470.13;5052348;28;20056;-67
2021/10/20 09:44:09;;;;;;;0.57;0.57;;;;;;;5.22;50.90;97456.16;5052458;28;20041;-65
2021/10/20 09:46:47;;;;;;;0.20;0.20;;;;;;;5.11;50.99;97448.78;5052784;28;20037;-65
2021/10/20 09:49:20;;;;;;;0.20;0.20;;;;;;;5.01;51.18;97452.09;5052538;28;20123;-65
2021/10/20 09:51:47;;;;;;;0.70;0.30;;;;;;;4.95;51.23;97450.28;5052212;28;20104;-64
2021/10/20 09:54:28;;;;;;;0.10;0.10;;;;;;;4.94;50.99;97446.75;5052623;28;20037;-67
2021/10/20 09:56:59;;;;;;;0.20;0.20;;;;;;;5.02;50.96;97440.13;5052412;28;20124;-64
2021/10/20 09:59:26;;;;;;;0.20;0.20;;;;;;;5.02;50.73;97442.84;5052173;28;20075;-65
2021/10/20 10:01:52;;;;;;;0.20;0.20;;;;;;;5.12;50.63;97450.47;5063323;28;20057;-67
2021/10/20 10:04:19;;;;;;;0.28;0.28;;;;;;;5.18;50.20;97453.09;5058557;28;20562;-66
2021/10/20 10:06:46;;;;;;;0.20;0.20;;;;;;;5.25;50.11;97459.22;5051267;28;20144;-67
2021/10/20 10:09:13;;;;;;;0.28;0.28;;;;;;;5.29;49.98;97456.06;5053901;28;20635;-66
2021/10/20 10:11:47;;;;;;;0.40;0.40;;;;;;;5.33;49.88;97471.69;5052169;28;20488;-65
2021/10/20 10:14:14;;;;;;;0.30;0.30;;;;;;;5.39;49.77;97478.09;5054536;28;20115;-65
2021/10/20 10:16:42;;;;;;;0.25;0.25;;;;;;;5.42;49.62;97483.06;5055915;28;20036;-65
2021/10/20 10:19:11;;;;;;;0.50;0.50;;;;;;;5.42;49.66;97485.78;5058545;28;20530;-65
2021/10/20 10:21:40;;;;;;;0.30;0.30;;;;;;;5.38;49.64;97479.97;5058242;28;20099;-66
2021/10/20 10:24:14;;;;;;;0.30;0.30;;;;;;;5.36;49.67;97482.09;5056703;28;20091;-66
2021/10/20 10:27:06;;;;;;;0.45;0.45;;;;;;;5.41;49.73;97478.69;5059472;28;20091;-65
2021/10/20 10:29:35;;;;;;;0.60;0.60;;;;;;;5.38;49.70;97477.25;5057744;28;20041;-65
2021/10/20 10:32:07;;;;;;;0.30;0.30;;;;;;;5.37;49.82;97472.03;5057995;28;20156;-66
2021/10/20 10:38:05;;;;;;;0.30;0.30;;;;;;;5.19;50.08;97468.34;5055368;28;20518;-64
2021/10/20 10:41:15;;;;;;;0.65;0.63;;;;;;;5.16;49.81;97479.69;5055864;28;20040;-66
2021/10/20 10:44:09;;;;;;;1.02;0.43;;;;;;;5.14;49.97;97478.25;5054200;28;20124;-66
2021/10/20 10:47:03;;;;;;;0.20;0.20;;;;;;;5.02;50.02;97483.66;5053255;28;20079;-63
2021/10/20 10:49:34;;;;;;;0.40;0.40;;;;;;;4.93;50.29;97476.91;5044604;28;20037;-64
2021/10/20 10:52:21;;;;;;;0.30;0.30;;;;;;;4.94;50.19;97484.00;5054944;28;20041;-65
2021/10/20 10:55:06;;;;;;;0.32;0.32;;;;;;;4.95;50.11;97483.78;5057197;28;20068;-64
2021/10/20 10:57:55;;;;;;;0.52;0.52;;;;;;;4.92;50.17;97486.97;5057551;28;20040;-63
2021/10/20 11:00:20;;;;;;;0.30;0.30;;;;;;;4.94;50.12;97484.00;5061538;28;20052;-65
2021/10/20 11:02:51;;;;;;;0.40;0.40;;;;;;;4.96;50.16;97474.56;5072629;28;20048;-65
2021/10/20 11:05:24;;;;;;;0.20;0.20;;;;;;;4.91;50.07;97477.94;5072600;28;20086;-64
2021/10/20 11:07:53;;;;;;;0.20;0.20;;;;;;;4.90;50.07;97487.19;5072579;28;20041;-65
2021/10/20 11:10:20;;;;;;;0.13;0.13;;;;;;;4.86;50.13;97475.09;5072541;28;20457;-65
2021/10/20 11:12:48;;;;;;;1.30;0.30;;;;;;;4.81;50.25;97476.84;5060330;28;20078;-65
2021/10/20 11:15:14;;;;;;;0.35;0.35;;;;;;;4.73;50.27;97473.41;5069451;28;20048;-66
2021/10/20 11:17:40;;;;;;;0.30;0.30;;;;;;;4.67;50.39;97482.47;5070298;28;20051;-63
2021/10/20 11:20:07;;;;;;;0.30;0.30;;;;;;;4.60;50.56;97481.72;5068694;28;20048;-63
2021/10/20 11:22:34;;;;;;;0.20;0.20;;;;;;;4.55;50.64;97479.72;5050981;28;20071;-65
2021/10/20 11:25:02;;;;;;;0.20;0.20;;;;;;;4.57;50.64;97493.88;5072462;28;20040;-63
2021/10/20 11:27:28;;;;;;;1.77;0.55;;;;;;;4.59;50.51;97481.97;5072104;28;20060;-62
2021/10/20 11:29:54;;;;;;;0.40;0.40;;;;;;;4.58;50.67;97489.31;5071681;28;20044;-63
2021/10/20 11:32:22;;;;;;;0.20;0.20;;;;;;;4.55;50.62;97481.59;5072049;28;20563;-64
2021/10/20 11:34:49;;;;;;;0.20;0.20;;;;;;;4.46;50.75;97477.50;5072010;28;20040;-65
2021/10/20 11:40:07;;;;;;;0.43;0.25;;;;;;;4.28;51.18;97479.19;5010674;28;20128;-66
2021/10/20 11:42:33;;;;;;;0.25;0.25;;;;;;;4.28;51.06;97483.81;5057197;28;20046;-64
2021/10/20 11:45:04;;;;;;;0.30;0.30;;;;;;;4.26;50.94;97486.75;5070627;28;20040;-65
2021/10/20 11:47:32;;;;;;;0.38;0.38;;;;;;;4.23;50.95;97491.81;5051839;28;20033;-63
2021/10/20 11:49:58;;;;;;;0.28;0.28;;;;;;;4.22;50.90;97490.97;5056664;28;20048;-64